sensor_id;sensor_type;location;lat;lon;timestamp;pressure;altitude;pressure_sealevel;temperature;humidity
44765;BME280;30484;52.382;5.260;2023-01-15T00:01:21;99809.00;;;9.44;100.00
44765;BME280;30484;52.382;5.260;2023-01-15T00:03:51;99813.09;;;9.64;100.00
44765;BME280;30484;52.382;5.260;2023-01-15T00:06:23;99796.06;;;9.52;100.00
44765;BME280;30484;52.382;5.260;2023-01-15T00:08:54;99795.47;;;9.61;100.00
44765;BME280;30484;52.382;5.260;2023-01-15T00:11:24;99793.38;;;9.38;100.00
44765;BME280;30484;52.382;5.260;2023-01-15T00:13:53;99785.81;;;9.73;100.00
44765;BME280;30484;52.382;5.260;2023-01-15T00:16:23;99793.66;;;9.76;100.00
44765;BME280;30484;52.382;5.260;2023-01-15T00:18:55;99789.94;;;9.64;100.00
44765;BME280;30484;52.382;5.260;2023-01-15T00:21:26;99781.66;;;9.69;100.00
44765;BME280;30484;52.382;5.260;2023-01-15T00:23:56;99793.81;;;9.73;100.00
44765;BME280;30484;52.382;5.260;2023-01-15T00:26:44;99782.59;;;9.68;100.00
44765;BME280;30484;52.382;5.260;2023-01-15T00:29:32;99789.19;;;9.62;100.00
44765;BME280;30484;52.382;5.260;2023-01-15T00:32:05;99775.56;;;9.53;100.00
44765;BME280;30484;52.382;5.260;2023-01-15T00:34:34;99775.19;;;9.59;100.00
44765;BME280;30484;52.382;5.260;2023-01-15T00:37:05;99778.63;;;9.61;100.00
44765;BME280;30484;52.382;5.260;2023-01-15T00:39:33;99783.44;;;9.68;100.00
44765;BME280;30484;52.382;5.260;2023-01-15T00:42:02;99791.81;;;9.77;100.00
44765;BME280;30484;52.382;5.260;2023-01-15T00:44:31;99783.00;;;9.33;100.00
44765;BME280;30484;52.382;5.260;2023-01-15T00:47:00;99783.97;;;9.46;100.00
44765;BME280;30484;52.382;5.260;2023-01-15T00:49:29;99778.25;;;9.38;100.00
44765;BME280;30484;52.382;5.260;2023-01-15T00:51:57;99771.25;;;9.64;100.00
44765;BME280;30484;52.382;5.260;2023-01-15T00:54:28;99782.44;;;9.57;100.00
44765;BME280;30484;52.382;5.260;2023-01-15T00:56:56;99783.19;;;9.44;100.00
44765;BME280;30484;52.382;5.260;2023-01-15T00:59:25;99791.66;;;9.51;100.00
44765;BME280;30484;52.382;5.260;2023-01-15T01:01:54;99783.19;;;9.44;100.00
44765;BME280;30484;52.382;5.260;2023-01-15T01:04:24;99791.50;;;9.40;100.00
44765;BME280;30484;52.382;5.260;2023-01-15T01:06:52;99779.19;;;9.52;100.00
44765;BME280;30484;52.382;5.260;2023-01-15T01:09:21;99786.63;;;9.46;100.00
44765;BME280;30484;52.382;5.260;2023-01-15T01:11:52;99796.41;;;9.46;100.00
44765;BME280;30484;52.382;5.260;2023-01-15T01:14:21;99787.19;;;9.23;100.00
44765;BME280;30484;52.382;5.260;2023-01-15T01:16:50;99794.91;;;9.42;100.00
44765;BME280;30484;52.382;5.260;2023-01-15T01:19:21;99792.13;;;9.43;100.00
44765;BME280;30484;52.382;5.260;2023-01-15T01:21:52;99794.50;;;9.19;100.00
44765;BME280;30484;52.382;5.260;2023-01-15T01:24:23;99801.47;;;9.07;100.00
44765;BME280;30484;52.382;5.260;2023-01-15T01:26:53;99807.19;;;9.30;100.00
44765;BME280;30484;52.382;5.260;2023-01-15T01:29:22;99816.63;;;9.36;100.00
44765;BME280;30484;52.382;5.260;2023-01-15T01:31:52;99810.44;;;9.35;100.00
44765;BME280;30484;52.382;5.260;2023-01-15T01:34:20;99820.31;;;9.19;100.00
44765;BME280;30484;52.382;5.260;2023-01-15T01:36:49;99815.78;;;9.35;100.00
44765;BME280;30484;52.382;5.260;2023-01-15T01:39:19;99823.75;;;9.64;100.00
44765;BME280;30484;52.382;5.260;2023-01-15T01:41:48;99813.00;;;9.37;100.00
44765;BME280;30484;52.382;5.260;2023-01-15T01:45:04;99820.13;;;9.22;100.00
44765;BME280;30484;52.382;5.260;2023-01-15T01:47:34;99824.72;;;9.48;100.00
44765;BME280;30484;52.382;5.260;2023-01-15T01:50:07;99824.72;;;9.48;100.00
44765;BME280;30484;52.382;5.260;2023-01-15T01:52:42;99825.47;;;9.36;100.00
44765;BME280;30484;52.382;5.260;2023-01-15T01:55:13;99832.88;;;9.17;100.00
44765;BME280;30484;52.382;5.260;2023-01-15T01:57:44;99814.13;;;9.61;100.00
44765;BME280;30484;52.382;5.260;2023-01-15T02:00:23;99820.16;;;9.50;100.00
44765;BME280;30484;52.382;5.260;2023-01-15T02:02:53;99806.53;;;9.55;100.00
44765;BME280;30484;52.382;5.260;2023-01-15T02:05:28;99807.88;;;9.48;100.00
44765;BME280;30484;52.382;5.260;2023-01-15T02:07:58;99800.13;;;9.43;100.00
44765;BME280;30484;52.382;5.260;2023-01-15T02:10:29;99808.72;;;9.48;100.00
44765;BME280;30484;52.382;5.260;2023-01-15T02:13:06;99805.19;;;9.48;100.00
44765;BME280;30484;52.382;5.260;2023-01-15T02:15:42;99807.00;;;9.33;100.00
44765;BME280;30484;52.382;5.260;2023-01-15T02:18:21;99814.13;;;9.47;100.00
44765;BME280;30484;52.382;5.260;2023-01-15T02:20:55;99809.00;;;9.44;100.00
44765;BME280;30484;52.382;5.260;2023-01-15T02:23:56;99799.78;;;9.35;100.00
44765;BME280;30484;52.382;5.260;2023-01-15T02:27:03;99794.25;;;9.24;100.00
44765;BME280;30484;52.382;5.260;2023-01-15T02:29:50;99808.31;;;9.40;100.00
44765;BME280;30484;52.382;5.260;2023-01-15T02:32:31;99796.03;;;9.23;100.00
44765;BME280;30484;52.382;5.260;2023-01-15T02:35:06;99791.69;;;9.22;100.00
44765;BME280;30484;52.382;5.260;2023-01-15T02:37:43;99788.03;;;9.23;100.00
44765;BME280;30484;52.382;5.260;2023-01-15T02:40:15;99795.59;;;9.31;100.00
44765;BME280;30484;52.382;5.260;2023-01-15T02:42:47;99797.06;;;9.06;100.00
44765;BME280;30484;52.382;5.260;2023-01-15T02:45:21;99799.19;;;9.15;100.00
44765;BME280;30484;52.382;5.260;2023-01-15T02:47:57;99792.31;;;9.11;100.00
44765;BME280;30484;52.382;5.260;2023-01-15T02:50:32;99799.09;;;9.17;100.00
44765;BME280;30484;52.382;5.260;2023-01-15T02:53:08;99794.06;;;9.12;100.00
44765;BME280;30484;52.382;5.260;2023-01-15T02:55:43;99794.16;;;9.11;100.00
44765;BME280;30484;52.382;5.260;2023-01-15T02:58:19;99792.31;;;9.11;100.00
44765;BME280;30484;52.382;5.260;2023-01-15T03:00:52;99781.78;;;9.24;100.00
44765;BME280;30484;52.382;5.260;2023-01-15T03:03:30;99787.94;;;9.10;100.00
44765;BME280;30484;52.382;5.260;2023-01-15T03:06:07;99780.03;;;8.94;100.00
44765;BME280;30484;52.382;5.260;2023-01-15T03:08:38;99780.72;;;9.27;100.00
44765;BME280;30484;52.382;5.260;2023-01-15T03:11:10;99778.25;;;9.09;100.00
44765;BME280;30484;52.382;5.260;2023-01-15T03:13:47;99779.94;;;9.10;100.00
44765;BME280;30484;52.382;5.260;2023-01-15T03:16:41;99775.94;;;9.18;100.00
44765;BME280;30484;52.382;5.260;2023-01-15T03:19:40;99767.19;;;8.87;100.00
44765;BME280;30484;52.382;5.260;2023-01-15T03:22:18;99766.63;;;8.96;100.00
44765;BME280;30484;52.382;5.260;2023-01-15T03:24:52;99762.06;;;9.12;100.00
44765;BME280;30484;52.382;5.260;2023-01-15T03:27:23;99771.59;;;9.02;100.00
44765;BME280;30484;52.382;5.260;2023-01-15T03:30:03;99778.25;;;9.09;100.00
44765;BME280;30484;52.382;5.260;2023-01-15T03:32:32;99767.41;;;8.98;100.00
44765;BME280;30484;52.382;5.260;2023-01-15T03:35:02;99770.06;;;8.98;100.00
44765;BME280;30484;52.382;5.260;2023-01-15T03:37:32;99772.94;;;9.09;100.00
44765;BME280;30484;52.382;5.260;2023-01-15T03:40:02;99768.53;;;8.94;100.00
44765;BME280;30484;52.382;5.260;2023-01-15T03:42:44;99773.03;;;9.08;100.00
44765;BME280;30484;52.382;5.260;2023-01-15T03:45:41;99767.31;;;9.00;100.00
44765;BME280;30484;52.382;5.260;2023-01-15T03:48:19;99779.66;;;9.01;100.00
44765;BME280;30484;52.382;5.260;2023-01-15T03:50:58;99784.09;;;8.71;100.00
44765;BME280;30484;52.382;5.260;2023-01-15T03:53:35;99763.72;;;8.70;100.00
44765;BME280;30484;52.382;5.260;2023-01-15T03:56:12;99761.66;;;8.75;100.00
44765;BME280;30484;52.382;5.260;2023-01-15T03:58:46;99758.56;;;8.53;100.00
44765;BME280;30484;52.382;5.260;2023-01-15T04:01:23;99759.56;;;8.80;100.00
44765;BME280;30484;52.382;5.260;2023-01-15T04:03:55;99754.22;;;8.80;100.00
44765;BME280;30484;52.382;5.260;2023-01-15T04:06:26;99761.38;;;8.94;100.00
44765;BME280;30484;52.382;5.260;2023-01-15T04:08:57;99763.69;;;9.15;100.00
44765;BME280;30484;52.382;5.260;2023-01-15T04:11:27;99764.34;;;9.04;100.00
44765;BME280;30484;52.382;5.260;2023-01-15T04:13:56;99755.03;;;9.11;100.00
44765;BME280;30484;52.382;5.260;2023-01-15T04:16:30;99764.34;;;9.04;100.00
44765;BME280;30484;52.382;5.260;2023-01-15T04:19:29;99764.53;;;9.01;100.00
44765;BME280;30484;52.382;5.260;2023-01-15T04:22:32;99756.97;;;8.64;100.00
44765;BME280;30484;52.382;5.260;2023-01-15T04:25:22;99754.19;;;8.66;100.00
44765;BME280;30484;52.382;5.260;2023-01-15T04:28:11;99759.19;;;8.72;100.00
44765;BME280;30484;52.382;5.260;2023-01-15T04:30:40;99757.19;;;8.90;100.00
44765;BME280;30484;52.382;5.260;2023-01-15T04:33:31;99753.19;;;8.83;100.00
44765;BME280;30484;52.382;5.260;2023-01-15T04:36:20;99750.06;;;8.91;100.00
44765;BME280;30484;52.382;5.260;2023-01-15T04:39:09;99765.88;;;8.94;100.00
44765;BME280;30484;52.382;5.260;2023-01-15T04:41:58;99750.03;;;8.76;100.00
44765;BME280;30484;52.382;5.260;2023-01-15T04:45:06;99758.81;;;8.93;100.00
44765;BME280;30484;52.382;5.260;2023-01-15T04:47:55;99746.50;;;8.61;100.00
44765;BME280;30484;52.382;5.260;2023-01-15T04:50:45;99743.56;;;8.66;100.00
44765;BME280;30484;52.382;5.260;2023-01-15T04:53:34;99751.47;;;8.82;100.00
44765;BME280;30484;52.382;5.260;2023-01-15T04:56:23;99748.56;;;8.87;100.00
44765;BME280;30484;52.382;5.260;2023-01-15T04:59:13;99743.31;;;9.00;100.00
44765;BME280;30484;52.382;5.260;2023-01-15T05:01:42;99746.63;;;8.74;100.00
44765;BME280;30484;52.382;5.260;2023-01-15T05:04:48;99742.09;;;8.91;100.00
44765;BME280;30484;52.382;5.260;2023-01-15T05:07:39;99738.34;;;8.79;100.00
44765;BME280;30484;52.382;5.260;2023-01-15T05:10:29;99738.53;;;8.76;100.00
44765;BME280;30484;52.382;5.260;2023-01-15T05:13:18;99739.94;;;8.53;100.00
44765;BME280;30484;52.382;5.260;2023-01-15T05:16:13;99747.66;;;8.72;100.00
44765;BME280;30484;52.382;5.260;2023-01-15T05:19:01;99739.63;;;8.57;100.00
44765;BME280;30484;52.382;5.260;2023-01-15T05:21:32;99727.50;;;8.37;100.00
44765;BME280;30484;52.382;5.260;2023-01-15T05:24:05;99717.50;;;8.57;100.00
44765;BME280;30484;52.382;5.260;2023-01-15T05:26:35;99731.78;;;8.70;100.00
44765;BME280;30484;52.382;5.260;2023-01-15T05:29:04;99730.03;;;8.55;100.00
44765;BME280;30484;52.382;5.260;2023-01-15T05:31:34;99729.28;;;8.53;100.00
44765;BME280;30484;52.382;5.260;2023-01-15T05:34:03;99716.63;;;8.56;100.00
44765;BME280;30484;52.382;5.260;2023-01-15T05:36:32;99721.38;;;8.51;100.00
44765;BME280;30484;52.382;5.260;2023-01-15T05:39:02;99713.31;;;8.53;100.00
44765;BME280;30484;52.382;5.260;2023-01-15T05:41:31;99712.47;;;8.36;100.00
44765;BME280;30484;52.382;5.260;2023-01-15T05:44:22;99717.84;;;8.51;100.00
44765;BME280;30484;52.382;5.260;2023-01-15T05:46:54;99714.63;;;8.45;100.00
44765;BME280;30484;52.382;5.260;2023-01-15T05:49:27;99724.16;;;8.64;100.00
44765;BME280;30484;52.382;5.260;2023-01-15T05:52:00;99712.56;;;8.65;100.00
44765;BME280;30484;52.382;5.260;2023-01-15T05:54:33;99715.38;;;8.48;100.00
44765;BME280;30484;52.382;5.260;2023-01-15T05:57:03;99718.22;;;8.44;100.00
44765;BME280;30484;52.382;5.260;2023-01-15T05:59:33;99722.50;;;8.47;100.00
44765;BME280;30484;52.382;5.260;2023-01-15T06:02:02;99717.53;;;8.41;100.00
44765;BME280;30484;52.382;5.260;2023-01-15T06:04:31;99724.63;;;8.40;100.00
44765;BME280;30484;52.382;5.260;2023-01-15T06:07:00;99723.69;;;8.41;100.00
44765;BME280;30484;52.382;5.260;2023-01-15T06:09:30;99741.81;;;8.51;100.00
44765;BME280;30484;52.382;5.260;2023-01-15T06:11:59;99737.75;;;8.43;100.00
44765;BME280;30484;52.382;5.260;2023-01-15T06:14:28;99740.88;;;8.52;100.00
44765;BME280;30484;52.382;5.260;2023-01-15T06:16:59;99731.25;;;8.49;100.00
44765;BME280;30484;52.382;5.260;2023-01-15T06:19:28;99732.63;;;8.40;100.00
44765;BME280;30484;52.382;5.260;2023-01-15T06:21:57;99728.25;;;8.39;100.00
44765;BME280;30484;52.382;5.260;2023-01-15T06:24:26;99731.03;;;8.22;100.00
44765;BME280;30484;52.382;5.260;2023-01-15T06:26:59;99741.72;;;8.36;100.00
44765;BME280;30484;52.382;5.260;2023-01-15T06:29:36;99736.31;;;8.38;100.00
44765;BME280;30484;52.382;5.260;2023-01-15T06:32:06;99723.94;;;8.22;100.00
44765;BME280;30484;52.382;5.260;2023-01-15T06:34:37;99722.97;;;7.93;100.00
44765;BME280;30484;52.382;5.260;2023-01-15T06:37:14;99742.72;;;8.19;100.00
44765;BME280;30484;52.382;5.260;2023-01-15T06:39:47;99739.91;;;8.06;100.00
44765;BME280;30484;52.382;5.260;2023-01-15T06:42:25;99730.81;;;8.10;100.00
44765;BME280;30484;52.382;5.260;2023-01-15T06:45:13;99737.84;;;8.11;100.00
44765;BME280;30484;52.382;5.260;2023-01-15T06:48:01;99741.91;;;8.33;100.00
44765;BME280;30484;52.382;5.260;2023-01-15T06:50:30;99719.69;;;8.04;100.00
44765;BME280;30484;52.382;5.260;2023-01-15T06:52:59;99723.75;;;8.25;100.00
44765;BME280;30484;52.382;5.260;2023-01-15T06:55:29;99725.16;;;8.17;100.00
44765;BME280;30484;52.382;5.260;2023-01-15T06:58:02;99718.16;;;7.84;100.00
44765;BME280;30484;52.382;5.260;2023-01-15T07:00:30;99729.72;;;7.99;100.00
44765;BME280;30484;52.382;5.260;2023-01-15T07:03:00;99739.66;;;8.11;100.00
44765;BME280;30484;52.382;5.260;2023-01-15T07:05:29;99741.56;;;7.93;100.00
44765;BME280;30484;52.382;5.260;2023-01-15T07:08:06;99726.81;;;7.87;100.00
44765;BME280;30484;52.382;5.260;2023-01-15T07:10:36;99742.50;;;7.92;100.00
44765;BME280;30484;52.382;5.260;2023-01-15T07:13:08;99715.44;;;7.85;100.00
44765;BME280;30484;52.382;5.260;2023-01-15T07:15:39;99724.22;;;8.02;100.00
44765;BME280;30484;52.382;5.260;2023-01-15T07:18:09;99738.22;;;7.89;100.00
44765;BME280;30484;52.382;5.260;2023-01-15T07:20:38;99726.41;;;7.79;100.00
44765;BME280;30484;52.382;5.260;2023-01-15T07:23:08;99734.53;;;7.92;100.00
44765;BME280;30484;52.382;5.260;2023-01-15T07:25:36;99725.78;;;7.90;100.00
44765;BME280;30484;52.382;5.260;2023-01-15T07:28:07;99722.59;;;7.99;100.00
44765;BME280;30484;52.382;5.260;2023-01-15T07:30:36;99718.16;;;7.84;100.00
44765;BME280;30484;52.382;5.260;2023-01-15T07:33:06;99717.97;;;8.03;100.00
44765;BME280;30484;52.382;5.260;2023-01-15T07:35:34;99702.94;;;8.02;100.00
44765;BME280;30484;52.382;5.260;2023-01-15T07:38:04;99715.66;;;7.97;100.00
44765;BME280;30484;52.382;5.260;2023-01-15T07:40:32;99706.81;;;7.96;100.00
44765;BME280;30484;52.382;5.260;2023-01-15T07:43:01;99691.59;;;8.14;100.00
44765;BME280;30484;52.382;5.260;2023-01-15T07:45:49;99693.25;;;8.01;100.00
44765;BME280;30484;52.382;5.260;2023-01-15T07:48:35;99688.47;;;8.22;100.00
44765;BME280;30484;52.382;5.260;2023-01-15T07:51:22;99687.91;;;8.17;100.00
44765;BME280;30484;52.382;5.260;2023-01-15T07:53:51;99698.88;;;8.10;100.00
44765;BME280;30484;52.382;5.260;2023-01-15T07:56:21;99693.38;;;8.13;100.00
44765;BME280;30484;52.382;5.260;2023-01-15T07:58:51;99700.00;;;8.06;100.00
44765;BME280;30484;52.382;5.260;2023-01-15T08:01:21;99693.38;;;8.13;100.00
44765;BME280;30484;52.382;5.260;2023-01-15T08:03:50;99684.28;;;8.18;100.00
44765;BME280;30484;52.382;5.260;2023-01-15T08:06:19;99689.69;;;8.16;100.00
44765;BME280;30484;52.382;5.260;2023-01-15T08:08:47;99682.50;;;8.18;100.00
44765;BME280;30484;52.382;5.260;2023-01-15T08:11:17;99694.06;;;8.17;100.00
44765;BME280;30484;52.382;5.260;2023-01-15T08:14:03;99697.13;;;7.95;100.00
44765;BME280;30484;52.382;5.260;2023-01-15T08:16:51;99706.81;;;7.96;100.00
44765;BME280;30484;52.382;5.260;2023-01-15T08:19:20;99703.97;;;7.99;100.00
44765;BME280;30484;52.382;5.260;2023-01-15T08:21:51;99707.00;;;7.93;100.00
44765;BME280;30484;52.382;5.260;2023-01-15T08:24:20;99696.13;;;8.28;100.00
44765;BME280;30484;52.382;5.260;2023-01-15T08:26:48;99703.59;;;8.21;100.00
44765;BME280;30484;52.382;5.260;2023-01-15T08:29:17;99694.06;;;8.17;100.00
44765;BME280;30484;52.382;5.260;2023-01-15T08:31:47;99709.19;;;8.17;100.00
44765;BME280;30484;52.382;5.260;2023-01-15T08:34:17;99703.03;;;8.00;100.00
44765;BME280;30484;52.382;5.260;2023-01-15T08:36:46;99691.13;;;8.22;100.00
44765;BME280;30484;52.382;5.260;2023-01-15T08:39:15;99673.66;;;8.32;100.00
44765;BME280;30484;52.382;5.260;2023-01-15T08:41:44;99692.50;;;8.59;100.00
44765;BME280;30484;52.382;5.260;2023-01-15T08:44:19;99709.69;;;8.54;100.00
44765;BME280;30484;52.382;5.260;2023-01-15T08:47:10;99700.59;;;8.72;100.00
44765;BME280;30484;52.382;5.260;2023-01-15T08:49:40;99719.50;;;8.68;100.00
44765;BME280;30484;52.382;5.260;2023-01-15T08:52:09;99693.56;;;8.71;100.00
44765;BME280;30484;52.382;5.260;2023-01-15T08:54:38;99689.75;;;8.90;100.00
44765;BME280;30484;52.382;5.260;2023-01-15T08:57:09;99707.81;;;8.99;100.00
44765;BME280;30484;52.382;5.260;2023-01-15T08:59:39;99706.47;;;8.77;100.00
44765;BME280;30484;52.382;5.260;2023-01-15T09:02:11;99712.59;;;8.79;100.00
44765;BME280;30484;52.382;5.260;2023-01-15T09:04:43;99726.28;;;8.43;100.00
44765;BME280;30484;52.382;5.260;2023-01-15T09:07:12;99717.28;;;8.45;100.00
44765;BME280;30484;52.382;5.260;2023-01-15T09:09:42;99722.72;;;8.28;100.00
44765;BME280;30484;52.382;5.260;2023-01-15T09:12:12;99716.94;;;8.05;100.00
44765;BME280;30484;52.382;5.260;2023-01-15T09:14:45;99715.00;;;8.23;100.00
44765;BME280;30484;52.382;5.260;2023-01-15T09:17:30;99714.47;;;8.33;100.00
44765;BME280;30484;52.382;5.260;2023-01-15T09:20:01;99701.97;;;8.19;100.00
44765;BME280;30484;52.382;5.260;2023-01-15T09:22:30;99699.63;;;7.98;100.00
44765;BME280;30484;52.382;5.260;2023-01-15T09:25:00;99702.66;;;8.22;100.00
44765;BME280;30484;52.382;5.260;2023-01-15T09:27:32;99711.88;;;8.01;100.00
44765;BME280;30484;52.382;5.260;2023-01-15T09:30:02;99694.56;;;7.93;100.00
44765;BME280;30484;52.382;5.260;2023-01-15T09:32:32;99710.56;;;8.08;100.00
44765;BME280;30484;52.382;5.260;2023-01-15T09:35:17;99712.31;;;8.23;100.00
44765;BME280;30484;52.382;5.260;2023-01-15T09:38:16;99706.38;;;8.34;100.00
44765;BME280;30484;52.382;5.260;2023-01-15T09:41:14;99707.69;;;8.27;100.00
44765;BME280;30484;52.382;5.260;2023-01-15T09:47:15;99719.00;;;8.46;100.00
44765;BME280;30484;52.382;5.260;2023-01-15T09:50:03;99715.47;;;8.46;100.00
44765;BME280;30484;52.382;5.260;2023-01-15T09:53:13;99712.28;;;8.39;100.00
44765;BME280;30484;52.382;5.260;2023-01-15T09:55:54;99713.81;;;8.43;100.00
44765;BME280;30484;52.382;5.260;2023-01-15T09:58:34;99720.59;;;8.49;100.00
44765;BME280;30484;52.382;5.260;2023-01-15T10:01:06;99728.91;;;8.73;100.00
44765;BME280;30484;52.382;5.260;2023-01-15T10:03:50;99720.38;;;8.68;100.00
44765;BME280;30484;52.382;5.260;2023-01-15T10:06:51;99708.50;;;8.88;100.00
44765;BME280;30484;52.382;5.260;2023-01-15T10:09:33;99718.47;;;8.70;100.00
44765;BME280;30484;52.382;5.260;2023-01-15T10:12:25;99718.84;;;8.64;100.00
44765;BME280;30484;52.382;5.260;2023-01-15T10:15:21;99731.88;;;8.83;100.00
44765;BME280;30484;52.382;5.260;2023-01-15T10:18:04;99721.63;;;8.91;100.00
44765;BME280;30484;52.382;5.260;2023-01-15T10:20:57;99736.38;;;8.83;100.00
44765;BME280;30484;52.382;5.260;2023-01-15T10:23:36;99721.63;;;8.91;100.00
44765;BME280;30484;52.382;5.260;2023-01-15T10:26:22;99737.31;;;8.81;100.00
44765;BME280;30484;52.382;5.260;2023-01-15T10:29:18;99737.50;;;8.78;100.00
44765;BME280;30484;52.382;5.260;2023-01-15T10:31:59;99742.09;;;8.91;100.00
44765;BME280;30484;52.382;5.260;2023-01-15T10:37:56;99730.09;;;9.12;100.00
44765;BME280;30484;52.382;5.260;2023-01-15T10:41:04;99728.44;;;9.53;100.00
44765;BME280;30484;52.382;5.260;2023-01-15T10:43:54;99740.47;;;9.88;100.00
44765;BME280;30484;52.382;5.260;2023-01-15T10:46:31;99735.88;;;9.90;100.00
44765;BME280;30484;52.382;5.260;2023-01-15T10:49:13;99739.59;;;9.87;100.00
44765;BME280;30484;52.382;5.260;2023-01-15T10:51:44;99737.38;;;9.94;100.00
44765;BME280;30484;52.382;5.260;2023-01-15T10:54:35;99737.84;;;9.59;100.00
44765;BME280;30484;52.382;5.260;2023-01-15T10:57:07;99741.41;;;9.87;100.00
44765;BME280;30484;52.382;5.260;2023-01-15T10:59:45;99748.84;;;9.40;100.00
44765;BME280;30484;52.382;5.260;2023-01-15T11:02:39;99738.72;;;9.59;100.00
44765;BME280;30484;52.382;5.260;2023-01-15T11:05:38;99734.97;;;9.76;100.00
44765;BME280;30484;52.382;5.260;2023-01-15T11:08:20;99726.91;;;9.49;100.00
44765;BME280;30484;52.382;5.260;2023-01-15T11:11:24;99741.47;;;9.72;100.00
44765;BME280;30484;52.382;5.260;2023-01-15T11:14:33;99746.69;;;9.74;100.00
44765;BME280;30484;52.382;5.260;2023-01-15T11:17:23;99736.22;;;9.98;100.00
44765;BME280;30484;52.382;5.260;2023-01-15T11:20:28;99728.34;;;9.96;100.00
44765;BME280;30484;52.382;5.260;2023-01-15T11:23:07;99738.59;;;9.75;100.00
44765;BME280;30484;52.382;5.260;2023-01-15T11:25:38;99737.75;;;9.60;100.00
44765;BME280;30484;52.382;5.260;2023-01-15T11:28:11;99736.19;;;9.85;100.00
44765;BME280;30484;52.382;5.260;2023-01-15T11:30:41;99740.75;;;9.83;100.00
44765;BME280;30484;52.382;5.260;2023-01-15T11:33:23;99726.59;;;9.68;100.00
44765;BME280;30484;52.382;5.260;2023-01-15T11:35:55;99736.97;;;9.73;100.00
44765;BME280;30484;52.382;5.260;2023-01-15T11:38:26;99724.69;;;9.97;100.00
44765;BME280;30484;52.382;5.260;2023-01-15T11:40:57;99732.47;;;9.73;100.00
44765;BME280;30484;52.382;5.260;2023-01-15T11:43:28;99737.19;;;9.55;100.00
44765;BME280;30484;52.382;5.260;2023-01-15T11:46:33;99737.94;;;9.57;100.00
44765;BME280;30484;52.382;5.260;2023-01-15T11:49:21;99743.97;;;9.46;100.00
44765;BME280;30484;52.382;5.260;2023-01-15T11:52:10;99738.25;;;9.53;100.00
44765;BME280;30484;52.382;5.260;2023-01-15T11:54:43;99736.50;;;9.66;100.00
44765;BME280;30484;52.382;5.260;2023-01-15T11:57:24;99738.94;;;9.83;100.00
44765;BME280;30484;52.382;5.260;2023-01-15T11:59:54;99733.53;;;9.85;100.00
44765;BME280;30484;52.382;5.260;2023-01-15T12:02:32;99728.81;;;9.89;100.00
44765;BME280;30484;52.382;5.260;2023-01-15T12:05:15;99732.16;;;10.19;100.00
44765;BME280;30484;52.382;5.260;2023-01-15T12:07:44;99723.03;;;10.09;100.00
44765;BME280;30484;52.382;5.260;2023-01-15T12:10:19;99731.63;;;10.00;100.00
44765;BME280;30484;52.382;5.260;2023-01-15T12:13:21;99720.44;;;9.95;100.00
44765;BME280;30484;52.382;5.260;2023-01-15T12:16:01;99740.78;;;9.68;100.00
44765;BME280;30484;52.382;5.260;2023-01-15T12:18:55;99726.00;;;9.77;100.00
44765;BME280;30484;52.382;5.260;2023-01-15T12:21:54;99739.56;;;9.60;100.00
44765;BME280;30484;52.382;5.260;2023-01-15T12:25:02;99740.75;;;9.83;100.00
44765;BME280;30484;52.382;5.260;2023-01-15T12:27:53;99739.38;;;9.63;100.00
44765;BME280;30484;52.382;5.260;2023-01-15T12:30:43;99730.34;;;9.93;100.00
44765;BME280;30484;52.382;5.260;2023-01-15T12:33:27;99742.59;;;9.68;100.00
44765;BME280;30484;52.382;5.260;2023-01-15T12:36:05;99735.41;;;9.83;100.00
44765;BME280;30484;52.382;5.260;2023-01-15T12:38:48;99740.84;;;9.81;100.00
44765;BME280;30484;52.382;5.260;2023-01-15T12:41:24;99736.13;;;9.99;100.00
44765;BME280;30484;52.382;5.260;2023-01-15T12:44:20;99734.63;;;9.95;100.00
44765;BME280;30484;52.382;5.260;2023-01-15T12:47:15;99728.16;;;10.12;100.00
44765;BME280;30484;52.382;5.260;2023-01-15T12:49:50;99729.75;;;10.02;100.00
44765;BME280;30484;52.382;5.260;2023-01-15T12:52:26;99728.19;;;10.52;100.00
44765;BME280;30484;52.382;5.260;2023-01-15T12:55:05;99734.59;;;10.50;100.00
44765;BME280;30484;52.382;5.260;2023-01-15T12:57:41;99724.75;;;10.38;100.00
44765;BME280;30484;52.382;5.260;2023-01-15T13:00:17;99730.03;;;10.25;100.00
44765;BME280;30484;52.382;5.260;2023-01-15T13:03:02;99744.13;;;10.27;100.00
44765;BME280;30484;52.382;5.260;2023-01-15T13:05:40;99732.84;;;10.36;100.00
44765;BME280;30484;52.382;5.260;2023-01-15T13:08:19;99725.13;;;10.31;100.00
44765;BME280;30484;52.382;5.260;2023-01-15T13:10:52;99721.97;;;10.39;100.00
44765;BME280;30484;52.382;5.260;2023-01-15T13:13:24;99726.00;;;10.32;100.00
44765;BME280;30484;52.382;5.260;2023-01-15T13:16:07;99717.09;;;10.31;100.00
44765;BME280;30484;52.382;5.260;2023-01-15T13:18:49;99711.84;;;10.17;100.00
44765;BME280;30484;52.382;5.260;2023-01-15T13:21:34;99725.72;;;10.09;100.00
44765;BME280;30484;52.382;5.260;2023-01-15T13:24:28;99742.78;;;10.07;100.00
44765;BME280;30484;52.382;5.260;2023-01-15T13:27:20;99732.47;;;10.15;100.00
44765;BME280;30484;52.382;5.260;2023-01-15T13:30:10;99722.84;;;10.12;100.00
44765;BME280;30484;52.382;5.260;2023-01-15T13:32:46;99740.72;;;10.25;100.00
44765;BME280;30484;52.382;5.260;2023-01-15T13:35:28;99735.41;;;10.10;100.00
44765;BME280;30484;52.382;5.260;2023-01-15T13:37:59;99750.25;;;10.14;100.00
44765;BME280;30484;52.382;5.260;2023-01-15T13:40:35;99758.38;;;10.13;100.00
44765;BME280;30484;52.382;5.260;2023-01-15T13:43:31;99747.34;;;9.77;100.00
44765;BME280;30484;52.382;5.260;2023-01-15T13:46:04;99752.78;;;10.03;100.00
44765;BME280;30484;52.382;5.260;2023-01-15T13:48:39;99753.09;;;9.98;100.00
44765;BME280;30484;52.382;5.260;2023-01-15T13:51:27;99754.81;;;9.99;100.00
44765;BME280;30484;52.382;5.260;2023-01-15T13:53:58;99771.22;;;9.93;100.00
44765;BME280;30484;52.382;5.260;2023-01-15T13:57:06;99771.03;;;9.96;100.00
44765;BME280;30484;52.382;5.260;2023-01-15T13:59:54;99792.50;;;9.66;100.00
44765;BME280;30484;52.382;5.260;2023-01-15T14:02:29;99801.00;;;9.58;100.00